Marysville, Ohio
Current Conditions -  °F | °C
As of 4:13 AM on Sunday 21 Dec 2014 (Local Time) from KMRT Reporting Station
Overcast Overcast  
Wind Chill: 28°   Ceiling: 2600
Heat Index: 28°   Visibility: 5mi
Dew Point: 24°   Wind: 3mph
Humidity: 85%   Direction: 250°WSW
Pressure: 30.29"   Gusts: NA
Location:  40.24°N, 83.37°W
Report Text: KMRT 210913Z AUTO 25003KT 5SM OVC026 M02/M05 A3029 RMK AO2 T10251047
Loading
Personal Weather Stations






























Interactive Weather Map New forecast layout! Learn more

10-Day Weather Forecast

Advertisements
Track Severe Weather on mobile